sensor_id;sensor_type;location;lat;lon;timestamp;temperature;humidity
18126;DHT22;53956;52.442;13.284;2023-09-19T00:01:39;22.90;99.90
18126;DHT22;53956;52.442;13.284;2023-09-19T00:04:07;22.90;99.90
18126;DHT22;53956;52.442;13.284;2023-09-19T00:06:35;22.80;99.90
18126;DHT22;53956;52.442;13.284;2023-09-19T00:09:02;22.90;99.90
18126;DHT22;53956;52.442;13.284;2023-09-19T00:11:29;22.80;99.90
18126;DHT22;53956;52.442;13.284;2023-09-19T00:13:56;22.90;99.90
18126;DHT22;53956;52.442;13.284;2023-09-19T00:16:25;22.80;99.90
18126;DHT22;53956;52.442;13.284;2023-09-19T00:18:52;22.80;99.90
18126;DHT22;53956;52.442;13.284;2023-09-19T00:21:20;22.70;99.90
18126;DHT22;53956;52.442;13.284;2023-09-19T00:23:47;22.90;99.90
18126;DHT22;53956;52.442;13.284;2023-09-19T00:26:14;22.80;99.90
18126;DHT22;53956;52.442;13.284;2023-09-19T00:28:47;22.90;99.90
18126;DHT22;53956;52.442;13.284;2023-09-19T00:31:13;22.70;99.90
18126;DHT22;53956;52.442;13.284;2023-09-19T00:33:40;22.80;99.90
18126;DHT22;53956;52.442;13.284;2023-09-19T00:36:07;22.70;99.90
18126;DHT22;53956;52.442;13.284;2023-09-19T00:38:35;22.70;99.90
18126;DHT22;53956;52.442;13.284;2023-09-19T00:41:01;22.70;99.90
18126;DHT22;53956;52.442;13.284;2023-09-19T00:43:28;22.70;99.90
18126;DHT22;53956;52.442;13.284;2023-09-19T00:46:00;22.70;99.90
18126;DHT22;53956;52.442;13.284;2023-09-19T00:48:28;22.70;99.90
18126;DHT22;53956;52.442;13.284;2023-09-19T00:50:57;22.70;99.90
18126;DHT22;53956;52.442;13.284;2023-09-19T00:53:25;22.70;99.90
18126;DHT22;53956;52.442;13.284;2023-09-19T00:55:55;22.70;99.90
18126;DHT22;53956;52.442;13.284;2023-09-19T00:58:22;22.60;99.90
18126;DHT22;53956;52.442;13.284;2023-09-19T01:00:49;22.60;99.90
18126;DHT22;53956;52.442;13.284;2023-09-19T01:03:18;22.70;99.90
18126;DHT22;53956;52.442;13.284;2023-09-19T01:05:45;22.50;99.90
18126;DHT22;53956;52.442;13.284;2023-09-19T01:08:12;22.50;99.90
18126;DHT22;53956;52.442;13.284;2023-09-19T01:10:44;22.60;99.90
18126;DHT22;53956;52.442;13.284;2023-09-19T01:13:21;22.50;99.90
18126;DHT22;53956;52.442;13.284;2023-09-19T01:15:55;22.50;99.90
18126;DHT22;53956;52.442;13.284;2023-09-19T01:18:30;22.50;99.90
18126;DHT22;53956;52.442;13.284;2023-09-19T01:21:05;22.50;99.90
18126;DHT22;53956;52.442;13.284;2023-09-19T01:23:46;22.50;99.90
18126;DHT22;53956;52.442;13.284;2023-09-19T01:26:30;22.50;99.90
18126;DHT22;53956;52.442;13.284;2023-09-19T01:29:21;22.50;99.90
18126;DHT22;53956;52.442;13.284;2023-09-19T01:31:52;22.60;99.90
18126;DHT22;53956;52.442;13.284;2023-09-19T01:34:20;22.60;99.90
18126;DHT22;53956;52.442;13.284;2023-09-19T01:36:47;22.50;99.90
18126;DHT22;53956;52.442;13.284;2023-09-19T01:39:14;22.50;99.90
18126;DHT22;53956;52.442;13.284;2023-09-19T01:42:01;22.50;99.90
18126;DHT22;53956;52.442;13.284;2023-09-19T01:44:36;22.50;99.90
18126;DHT22;53956;52.442;13.284;2023-09-19T01:47:13;22.50;99.90
18126;DHT22;53956;52.442;13.284;2023-09-19T01:49:53;22.50;99.90
18126;DHT22;53956;52.442;13.284;2023-09-19T01:52:29;22.40;99.90
18126;DHT22;53956;52.442;13.284;2023-09-19T01:55:04;22.50;99.90
18126;DHT22;53956;52.442;13.284;2023-09-19T01:57:35;22.40;99.90
18126;DHT22;53956;52.442;13.284;2023-09-19T02:00:07;22.40;99.90
18126;DHT22;53956;52.442;13.284;2023-09-19T02:02:46;22.40;99.90
18126;DHT22;53956;52.442;13.284;2023-09-19T02:05:22;22.40;99.90
18126;DHT22;53956;52.442;13.284;2023-09-19T02:07:48;22.40;99.90
18126;DHT22;53956;52.442;13.284;2023-09-19T02:10:16;22.30;99.90
18126;DHT22;53956;52.442;13.284;2023-09-19T02:12:43;22.30;99.90
18126;DHT22;53956;52.442;13.284;2023-09-19T02:15:13;22.30;99.90
18126;DHT22;53956;52.442;13.284;2023-09-19T02:17:41;22.30;99.90
18126;DHT22;53956;52.442;13.284;2023-09-19T02:20:10;22.30;99.90
18126;DHT22;53956;52.442;13.284;2023-09-19T02:22:40;22.20;99.90
18126;DHT22;53956;52.442;13.284;2023-09-19T02:25:07;22.30;99.90
18126;DHT22;53956;52.442;13.284;2023-09-19T02:27:35;22.20;99.90
18126;DHT22;53956;52.442;13.284;2023-09-19T02:30:03;22.20;99.90
18126;DHT22;53956;52.442;13.284;2023-09-19T02:32:31;22.30;99.90
18126;DHT22;53956;52.442;13.284;2023-09-19T02:35:01;22.30;99.90
18126;DHT22;53956;52.442;13.284;2023-09-19T02:37:30;22.20;99.90
18126;DHT22;53956;52.442;13.284;2023-09-19T02:39:58;22.20;99.90
18126;DHT22;53956;52.442;13.284;2023-09-19T02:42:24;22.20;99.90
18126;DHT22;53956;52.442;13.284;2023-09-19T02:44:51;22.20;99.90
18126;DHT22;53956;52.442;13.284;2023-09-19T02:47:17;22.20;99.90
18126;DHT22;53956;52.442;13.284;2023-09-19T02:49:44;22.30;99.90
18126;DHT22;53956;52.442;13.284;2023-09-19T02:52:11;22.20;99.90
18126;DHT22;53956;52.442;13.284;2023-09-19T02:54:41;22.20;99.90
18126;DHT22;53956;52.442;13.284;2023-09-19T02:57:10;22.20;99.90
18126;DHT22;53956;52.442;13.284;2023-09-19T02:59:39;22.10;99.90
18126;DHT22;53956;52.442;13.284;2023-09-19T03:02:07;22.20;99.90
18126;DHT22;53956;52.442;13.284;2023-09-19T03:04:35;22.10;99.90
18126;DHT22;53956;52.442;13.284;2023-09-19T03:07:02;22.20;99.90
18126;DHT22;53956;52.442;13.284;2023-09-19T03:09:29;22.10;99.90
18126;DHT22;53956;52.442;13.284;2023-09-19T03:11:57;22.10;99.90
18126;DHT22;53956;52.442;13.284;2023-09-19T03:14:25;22.20;99.90
18126;DHT22;53956;52.442;13.284;2023-09-19T03:16:56;22.00;99.90
18126;DHT22;53956;52.442;13.284;2023-09-19T03:19:23;22.00;99.90
18126;DHT22;53956;52.442;13.284;2023-09-19T03:21:52;22.00;99.90
18126;DHT22;53956;52.442;13.284;2023-09-19T03:24:19;22.10;99.90
18126;DHT22;53956;52.442;13.284;2023-09-19T03:26:46;22.10;99.90
18126;DHT22;53956;52.442;13.284;2023-09-19T03:29:15;22.10;99.90
18126;DHT22;53956;52.442;13.284;2023-09-19T03:31:43;22.00;99.90
18126;DHT22;53956;52.442;13.284;2023-09-19T03:34:11;22.00;99.90
18126;DHT22;53956;52.442;13.284;2023-09-19T03:36:38;22.20;99.90
18126;DHT22;53956;52.442;13.284;2023-09-19T03:39:06;22.10;99.90
18126;DHT22;53956;52.442;13.284;2023-09-19T03:41:33;22.10;99.90
18126;DHT22;53956;52.442;13.284;2023-09-19T03:44:02;22.10;99.90
18126;DHT22;53956;52.442;13.284;2023-09-19T03:46:30;22.20;99.90
18126;DHT22;53956;52.442;13.284;2023-09-19T03:48:58;22.20;99.90
18126;DHT22;53956;52.442;13.284;2023-09-19T03:51:25;22.30;99.90
18126;DHT22;53956;52.442;13.284;2023-09-19T03:53:52;22.30;99.90
18126;DHT22;53956;52.442;13.284;2023-09-19T03:56:18;22.30;99.90
18126;DHT22;53956;52.442;13.284;2023-09-19T03:58:45;22.40;99.90
18126;DHT22;53956;52.442;13.284;2023-09-19T04:01:12;22.30;99.90
18126;DHT22;53956;52.442;13.284;2023-09-19T04:03:40;22.20;99.90
18126;DHT22;53956;52.442;13.284;2023-09-19T04:06:13;22.20;99.90
18126;DHT22;53956;52.442;13.284;2023-09-19T04:08:40;22.10;99.90
18126;DHT22;53956;52.442;13.284;2023-09-19T04:11:07;22.10;99.90
18126;DHT22;53956;52.442;13.284;2023-09-19T04:13:34;22.20;99.90
18126;DHT22;53956;52.442;13.284;2023-09-19T04:16:00;22.10;99.90
18126;DHT22;53956;52.442;13.284;2023-09-19T04:18:27;22.10;99.90
18126;DHT22;53956;52.442;13.284;2023-09-19T04:20:57;22.10;99.90
18126;DHT22;53956;52.442;13.284;2023-09-19T04:23:25;22.10;99.90
18126;DHT22;53956;52.442;13.284;2023-09-19T04:25:52;22.00;99.90
18126;DHT22;53956;52.442;13.284;2023-09-19T04:28:19;22.00;99.90
18126;DHT22;53956;52.442;13.284;2023-09-19T04:30:45;21.90;99.90
18126;DHT22;53956;52.442;13.284;2023-09-19T04:33:12;22.00;99.90
18126;DHT22;53956;52.442;13.284;2023-09-19T04:35:39;22.00;99.90
18126;DHT22;53956;52.442;13.284;2023-09-19T04:38:09;22.10;99.90
18126;DHT22;53956;52.442;13.284;2023-09-19T04:40:35;22.00;99.90
18126;DHT22;53956;52.442;13.284;2023-09-19T04:43:05;22.00;99.90
18126;DHT22;53956;52.442;13.284;2023-09-19T04:45:33;21.90;99.90
18126;DHT22;53956;52.442;13.284;2023-09-19T04:47:59;21.90;99.90
18126;DHT22;53956;52.442;13.284;2023-09-19T04:50:26;22.00;99.90
18126;DHT22;53956;52.442;13.284;2023-09-19T04:52:53;22.00;99.90
18126;DHT22;53956;52.442;13.284;2023-09-19T04:55:21;21.90;99.90
18126;DHT22;53956;52.442;13.284;2023-09-19T04:57:48;21.80;99.90
18126;DHT22;53956;52.442;13.284;2023-09-19T05:00:16;21.90;99.90
18126;DHT22;53956;52.442;13.284;2023-09-19T05:02:46;21.90;99.90
18126;DHT22;53956;52.442;13.284;2023-09-19T05:05:12;21.90;99.90
18126;DHT22;53956;52.442;13.284;2023-09-19T05:07:41;21.80;99.90
18126;DHT22;53956;52.442;13.284;2023-09-19T05:10:08;21.70;99.90
18126;DHT22;53956;52.442;13.284;2023-09-19T05:12:38;21.80;99.90
18126;DHT22;53956;52.442;13.284;2023-09-19T05:15:06;21.80;99.90
18126;DHT22;53956;52.442;13.284;2023-09-19T05:17:33;21.80;99.90
18126;DHT22;53956;52.442;13.284;2023-09-19T05:20:00;21.80;99.90
18126;DHT22;53956;52.442;13.284;2023-09-19T05:22:41;21.80;99.90
18126;DHT22;53956;52.442;13.284;2023-09-19T05:25:08;21.80;99.90
18126;DHT22;53956;52.442;13.284;2023-09-19T05:27:35;21.90;99.90
18126;DHT22;53956;52.442;13.284;2023-09-19T05:30:04;21.70;99.90
18126;DHT22;53956;52.442;13.284;2023-09-19T05:32:32;21.80;99.90
18126;DHT22;53956;52.442;13.284;2023-09-19T05:34:59;21.90;99.90
18126;DHT22;53956;52.442;13.284;2023-09-19T05:37:25;21.90;99.90
18126;DHT22;53956;52.442;13.284;2023-09-19T05:39:52;21.80;99.90
18126;DHT22;53956;52.442;13.284;2023-09-19T05:42:19;21.80;99.90
18126;DHT22;53956;52.442;13.284;2023-09-19T05:44:46;21.80;99.90
18126;DHT22;53956;52.442;13.284;2023-09-19T05:47:14;21.90;99.80
18126;DHT22;53956;52.442;13.284;2023-09-19T05:49:40;22.10;99.10
18126;DHT22;53956;52.442;13.284;2023-09-19T05:52:07;22.00;99.20
18126;DHT22;53956;52.442;13.284;2023-09-19T05:54:34;22.20;98.00
18126;DHT22;53956;52.442;13.284;2023-09-19T05:57:01;22.20;97.40
18126;DHT22;53956;52.442;13.284;2023-09-19T05:59:27;22.20;98.00
18126;DHT22;53956;52.442;13.284;2023-09-19T06:01:54;22.40;97.20
18126;DHT22;53956;52.442;13.284;2023-09-19T06:04:22;22.70;96.30
18126;DHT22;53956;52.442;13.284;2023-09-19T06:06:49;22.70;95.90
18126;DHT22;53956;52.442;13.284;2023-09-19T06:09:16;22.70;95.40
18126;DHT22;53956;52.442;13.284;2023-09-19T06:11:43;23.00;95.10
18126;DHT22;53956;52.442;13.284;2023-09-19T06:14:09;23.20;94.00
18126;DHT22;53956;52.442;13.284;2023-09-19T06:16:37;23.50;93.20
18126;DHT22;53956;52.442;13.284;2023-09-19T06:19:04;23.70;90.60
18126;DHT22;53956;52.442;13.284;2023-09-19T06:21:35;23.90;89.80
18126;DHT22;53956;52.442;13.284;2023-09-19T06:24:03;24.00;89.60
18126;DHT22;53956;52.442;13.284;2023-09-19T06:26:29;24.10;89.50
18126;DHT22;53956;52.442;13.284;2023-09-19T06:28:56;24.50;88.50
18126;DHT22;53956;52.442;13.284;2023-09-19T06:31:23;24.70;87.20
18126;DHT22;53956;52.442;13.284;2023-09-19T06:33:51;25.20;85.40
18126;DHT22;53956;52.442;13.284;2023-09-19T06:36:18;25.60;84.90
18126;DHT22;53956;52.442;13.284;2023-09-19T06:38:47;26.10;83.30
18126;DHT22;53956;52.442;13.284;2023-09-19T06:41:14;26.60;80.60
18126;DHT22;53956;52.442;13.284;2023-09-19T06:43:42;27.20;78.90
18126;DHT22;53956;52.442;13.284;2023-09-19T06:46:09;27.30;78.70
18126;DHT22;53956;52.442;13.284;2023-09-19T06:48:38;27.50;77.30
18126;DHT22;53956;52.442;13.284;2023-09-19T06:51:05;27.70;76.70
18126;DHT22;53956;52.442;13.284;2023-09-19T06:53:32;28.00;76.40
18126;DHT22;53956;52.442;13.284;2023-09-19T06:56:01;28.20;75.20
18126;DHT22;53956;52.442;13.284;2023-09-19T06:58:28;28.70;74.30
18126;DHT22;53956;52.442;13.284;2023-09-19T07:00:55;29.40;71.20
18126;DHT22;53956;52.442;13.284;2023-09-19T07:03:22;29.80;70.10
18126;DHT22;53956;52.442;13.284;2023-09-19T07:05:51;30.40;68.90
18126;DHT22;53956;52.442;13.284;2023-09-19T07:08:21;29.90;68.30
18126;DHT22;53956;52.442;13.284;2023-09-19T07:10:48;29.60;68.70
18126;DHT22;53956;52.442;13.284;2023-09-19T07:13:16;29.10;69.70
18126;DHT22;53956;52.442;13.284;2023-09-19T07:15:44;29.00;71.20
18126;DHT22;53956;52.442;13.284;2023-09-19T07:18:13;28.70;71.70
18126;DHT22;53956;52.442;13.284;2023-09-19T07:20:41;28.20;72.60
18126;DHT22;53956;52.442;13.284;2023-09-19T07:23:11;27.50;74.30
18126;DHT22;53956;52.442;13.284;2023-09-19T07:25:39;27.10;74.80
18126;DHT22;53956;52.442;13.284;2023-09-19T07:28:06;26.50;75.70
18126;DHT22;53956;52.442;13.284;2023-09-19T07:30:36;26.30;77.80
18126;DHT22;53956;52.442;13.284;2023-09-19T07:33:03;26.00;78.30
18126;DHT22;53956;52.442;13.284;2023-09-19T07:35:30;25.90;78.00
18126;DHT22;53956;52.442;13.284;2023-09-19T07:37:57;26.40;76.00
18126;DHT22;53956;52.442;13.284;2023-09-19T07:40:26;26.50;75.20
18126;DHT22;53956;52.442;13.284;2023-09-19T07:42:54;26.30;76.10
18126;DHT22;53956;52.442;13.284;2023-09-19T07:45:21;26.10;77.40
18126;DHT22;53956;52.442;13.284;2023-09-19T07:47:50;25.60;77.60
18126;DHT22;53956;52.442;13.284;2023-09-19T07:50:18;25.40;77.50
18126;DHT22;53956;52.442;13.284;2023-09-19T07:52:45;25.70;76.80
18126;DHT22;53956;52.442;13.284;2023-09-19T07:55:12;26.00;76.80
18126;DHT22;53956;52.442;13.284;2023-09-19T07:57:42;26.50;75.00
18126;DHT22;53956;52.442;13.284;2023-09-19T08:00:10;26.50;74.40
18126;DHT22;53956;52.442;13.284;2023-09-19T08:02:37;26.20;76.10
18126;DHT22;53956;52.442;13.284;2023-09-19T08:05:07;26.40;74.90
18126;DHT22;53956;52.442;13.284;2023-09-19T08:07:35;25.80;76.70
18126;DHT22;53956;52.442;13.284;2023-09-19T08:10:03;25.70;77.40
18126;DHT22;53956;52.442;13.284;2023-09-19T08:12:30;26.40;74.90
18126;DHT22;53956;52.442;13.284;2023-09-19T08:14:58;27.00;72.80
18126;DHT22;53956;52.442;13.284;2023-09-19T08:17:24;26.90;72.60
18126;DHT22;53956;52.442;13.284;2023-09-19T08:19:51;26.10;74.10
18126;DHT22;53956;52.442;13.284;2023-09-19T08:22:20;25.60;75.40
18126;DHT22;53956;52.442;13.284;2023-09-19T08:24:47;25.20;76.30
18126;DHT22;53956;52.442;13.284;2023-09-19T08:27:14;25.30;75.90
18126;DHT22;53956;52.442;13.284;2023-09-19T08:29:46;25.40;75.70
18126;DHT22;53956;52.442;13.284;2023-09-19T08:32:13;25.40;75.20
18126;DHT22;53956;52.442;13.284;2023-09-19T08:34:39;25.20;75.90
18126;DHT22;53956;52.442;13.284;2023-09-19T08:37:06;25.80;74.50
18126;DHT22;53956;52.442;13.284;2023-09-19T08:39:34;26.10;73.90
18126;DHT22;53956;52.442;13.284;2023-09-19T08:42:03;25.90;75.10
18126;DHT22;53956;52.442;13.284;2023-09-19T08:44:30;25.70;75.60
18126;DHT22;53956;52.442;13.284;2023-09-19T08:47:01;26.00;74.40
18126;DHT22;53956;52.442;13.284;2023-09-19T08:49:37;26.20;73.10
18126;DHT22;53956;52.442;13.284;2023-09-19T08:52:12;26.30;72.90
18126;DHT22;53956;52.442;13.284;2023-09-19T08:54:44;26.40;69.80
18126;DHT22;53956;52.442;13.284;2023-09-19T08:57:12;26.10;71.90
18126;DHT22;53956;52.442;13.284;2023-09-19T08:59:47;25.90;73.00
18126;DHT22;53956;52.442;13.284;2023-09-19T09:02:16;25.60;72.50
18126;DHT22;53956;52.442;13.284;2023-09-19T09:04:45;25.30;73.40
18126;DHT22;53956;52.442;13.284;2023-09-19T09:07:14;25.60;74.10
18126;DHT22;53956;52.442;13.284;2023-09-19T09:09:43;25.70;73.70
18126;DHT22;53956;52.442;13.284;2023-09-19T09:12:12;25.70;73.50
18126;DHT22;53956;52.442;13.284;2023-09-19T09:14:39;25.60;73.60
18126;DHT22;53956;52.442;13.284;2023-09-19T09:17:07;25.60;71.60
18126;DHT22;53956;52.442;13.284;2023-09-19T09:19:34;25.40;72.90
18126;DHT22;53956;52.442;13.284;2023-09-19T09:22:08;25.40;73.10
18126;DHT22;53956;52.442;13.284;2023-09-19T09:24:35;25.40;72.80
18126;DHT22;53956;52.442;13.284;2023-09-19T09:27:06;25.40;71.70
18126;DHT22;53956;52.442;13.284;2023-09-19T09:29:42;25.40;71.50
18126;DHT22;53956;52.442;13.284;2023-09-19T09:32:20;25.10;71.30
18126;DHT22;53956;52.442;13.284;2023-09-19T09:34:49;24.90;71.40
18126;DHT22;53956;52.442;13.284;2023-09-19T09:37:17;24.60;72.00
18126;DHT22;53956;52.442;13.284;2023-09-19T09:39:49;24.50;72.60
18126;DHT22;53956;52.442;13.284;2023-09-19T09:42:31;24.50;72.30
18126;DHT22;53956;52.442;13.284;2023-09-19T09:45:16;24.70;72.50
18126;DHT22;53956;52.442;13.284;2023-09-19T09:47:44;24.80;71.90
18126;DHT22;53956;52.442;13.284;2023-09-19T09:50:24;24.80;72.30
18126;DHT22;53956;52.442;13.284;2023-09-19T09:52:55;25.00;71.60
18126;DHT22;53956;52.442;13.284;2023-09-19T09:55:26;25.30;72.50
18126;DHT22;53956;52.442;13.284;2023-09-19T09:58:16;25.30;70.30
18126;DHT22;53956;52.442;13.284;2023-09-19T10:00:52;25.10;71.00
18126;DHT22;53956;52.442;13.284;2023-09-19T10:03:22;25.10;71.20
18126;DHT22;53956;52.442;13.284;2023-09-19T10:06:00;25.20;72.00
18126;DHT22;53956;52.442;13.284;2023-09-19T10:08:34;25.20;71.70
18126;DHT22;53956;52.442;13.284;2023-09-19T10:11:15;25.20;69.00
18126;DHT22;53956;52.442;13.284;2023-09-19T10:13:44;25.10;70.00
18126;DHT22;53956;52.442;13.284;2023-09-19T10:16:13;25.10;68.80
18126;DHT22;53956;52.442;13.284;2023-09-19T10:18:44;25.00;68.00
18126;DHT22;53956;52.442;13.284;2023-09-19T10:21:12;24.90;68.20
18126;DHT22;53956;52.442;13.284;2023-09-19T10:23:40;25.00;67.70
18126;DHT22;53956;52.442;13.284;2023-09-19T10:26:09;25.10;68.10
18126;DHT22;53956;52.442;13.284;2023-09-19T10:28:37;25.20;68.20
18126;DHT22;53956;52.442;13.284;2023-09-19T10:31:06;25.10;68.40
18126;DHT22;53956;52.442;13.284;2023-09-19T10:33:36;25.10;69.30
18126;DHT22;53956;52.442;13.284;2023-09-19T10:36:05;25.20;67.80
18126;DHT22;53956;52.442;13.284;2023-09-19T10:38:33;25.10;65.50
18126;DHT22;53956;52.442;13.284;2023-09-19T10:41:01;25.20;67.20
18126;DHT22;53956;52.442;13.284;2023-09-19T10:43:30;25.20;66.50
18126;DHT22;53956;52.442;13.284;2023-09-19T10:46:01;25.40;66.50
18126;DHT22;53956;52.442;13.284;2023-09-19T10:48:30;25.20;67.40
18126;DHT22;53956;52.442;13.284;2023-09-19T10:51:02;25.10;66.20
18126;DHT22;53956;52.442;13.284;2023-09-19T10:53:41;25.00;68.00
18126;DHT22;53956;52.442;13.284;2023-09-19T10:56:09;24.80;66.70
18126;DHT22;53956;52.442;13.284;2023-09-19T10:58:43;24.80;66.30
18126;DHT22;53956;52.442;13.284;2023-09-19T11:01:10;24.80;66.20
18126;DHT22;53956;52.442;13.284;2023-09-19T11:03:42;24.60;66.30
18126;DHT22;53956;52.442;13.284;2023-09-19T11:06:11;24.50;66.10
18126;DHT22;53956;52.442;13.284;2023-09-19T11:08:54;24.40;66.50
18126;DHT22;53956;52.442;13.284;2023-09-19T11:11:42;24.50;66.50
18126;DHT22;53956;52.442;13.284;2023-09-19T11:17:30;24.60;66.80
18126;DHT22;53956;52.442;13.284;2023-09-19T11:20:20;24.80;67.00
18126;DHT22;53956;52.442;13.284;2023-09-19T11:23:18;24.60;65.80
18126;DHT22;53956;52.442;13.284;2023-09-19T11:25:48;24.70;66.00
18126;DHT22;53956;52.442;13.284;2023-09-19T11:28:32;24.80;66.40
18126;DHT22;53956;52.442;13.284;2023-09-19T11:30:59;24.80;66.10
18126;DHT22;53956;52.442;13.284;2023-09-19T11:33:27;24.80;65.10
18126;DHT22;53956;52.442;13.284;2023-09-19T11:36:03;24.80;63.60
18126;DHT22;53956;52.442;13.284;2023-09-19T11:38:58;24.70;64.10
18126;DHT22;53956;52.442;13.284;2023-09-19T11:41:37;24.80;65.00
18126;DHT22;53956;52.442;13.284;2023-09-19T11:44:32;24.80;65.20
18126;DHT22;53956;52.442;13.284;2023-09-19T11:47:02;24.70;64.00
18126;DHT22;53956;52.442;13.284;2023-09-19T11:49:31;24.60;64.40
18126;DHT22;53956;52.442;13.284;2023-09-19T11:52:01;24.60;64.70
18126;DHT22;53956;52.442;13.284;2023-09-19T11:54:31;24.60;65.00
18126;DHT22;53956;52.442;13.284;2023-09-19T11:56:59;24.60;64.70
18126;DHT22;53956;52.442;13.284;2023-09-19T11:59:26;24.60;63.40
18126;DHT22;53956;52.442;13.284;2023-09-19T12:01:56;24.50;64.20
18126;DHT22;53956;52.442;13.284;2023-09-19T12:04:37;24.60;63.80
18126;DHT22;53956;52.442;13.284;2023-09-19T12:07:10;24.40;63.40
18126;DHT22;53956;52.442;13.284;2023-09-19T12:09:41;24.20;63.50
18126;DHT22;53956;52.442;13.284;2023-09-19T12:12:10;24.30;65.30
18126;DHT22;53956;52.442;13.284;2023-09-19T12:14:38;24.40;64.80
18126;DHT22;53956;52.442;13.284;2023-09-19T12:17:07;24.30;63.40
18126;DHT22;53956;52.442;13.284;2023-09-19T12:19:34;24.40;64.00
18126;DHT22;53956;52.442;13.284;2023-09-19T12:22:02;24.50;63.90
18126;DHT22;53956;52.442;13.284;2023-09-19T12:24:32;24.50;63.90
18126;DHT22;53956;52.442;13.284;2023-09-19T12:27:03;24.50;63.80
18126;DHT22;53956;52.442;13.284;2023-09-19T12:29:42;24.50;63.50
18126;DHT22;53956;52.442;13.284;2023-09-19T12:32:10;24.40;63.20
18126;DHT22;53956;52.442;13.284;2023-09-19T12:34:37;24.50;63.80
18126;DHT22;53956;52.442;13.284;2023-09-19T12:37:09;24.50;63.00
18126;DHT22;53956;52.442;13.284;2023-09-19T12:39:43;24.60;64.10
18126;DHT22;53956;52.442;13.284;2023-09-19T12:42:14;24.60;64.30
18126;DHT22;53956;52.442;13.284;2023-09-19T12:44:42;24.60;63.20
18126;DHT22;53956;52.442;13.284;2023-09-19T12:47:14;24.50;63.10
18126;DHT22;53956;52.442;13.284;2023-09-19T12:50:10;24.50;63.70
18126;DHT22;53956;52.442;13.284;2023-09-19T12:52:43;24.50;63.30
18126;DHT22;53956;52.442;13.284;2023-09-19T12:55:27;24.60;64.30
18126;DHT22;53956;52.442;13.284;2023-09-19T12:58:12;24.50;63.80
18126;DHT22;53956;52.442;13.284;2023-09-19T13:00:41;24.50;63.70
18126;DHT22;53956;52.442;13.284;2023-09-19T13:03:16;24.60;63.60
18126;DHT22;53956;52.442;13.284;2023-09-19T13:05:51;24.60;63.70
18126;DHT22;53956;52.442;13.284;2023-09-19T13:08:24;24.40;63.80
18126;DHT22;53956;52.442;13.284;2023-09-19T13:11:06;24.40;63.70
18126;DHT22;53956;52.442;13.284;2023-09-19T13:13:36;24.40;64.30
18126;DHT22;53956;52.442;13.284;2023-09-19T13:16:03;24.30;62.70
18126;DHT22;53956;52.442;13.284;2023-09-19T13:18:41;24.30;63.20
18126;DHT22;53956;52.442;13.284;2023-09-19T13:21:10;24.50;64.30
18126;DHT22;53956;52.442;13.284;2023-09-19T13:23:38;24.40;64.70
18126;DHT22;53956;52.442;13.284;2023-09-19T13:26:06;24.40;63.50
18126;DHT22;53956;52.442;13.284;2023-09-19T13:28:33;24.50;64.20
18126;DHT22;53956;52.442;13.284;2023-09-19T13:31:00;24.50;63.60
18126;DHT22;53956;52.442;13.284;2023-09-19T13:33:27;24.30;63.40
18126;DHT22;53956;52.442;13.284;2023-09-19T13:35:54;24.20;63.10
18126;DHT22;53956;52.442;13.284;2023-09-19T13:38:22;24.30;63.10
18126;DHT22;53956;52.442;13.284;2023-09-19T13:40:49;24.30;63.80
18126;DHT22;53956;52.442;13.284;2023-09-19T13:43:19;24.30;63.50
18126;DHT22;53956;52.442;13.284;2023-09-19T13:45:47;24.30;63.80
18126;DHT22;53956;52.442;13.284;2023-09-19T13:48:15;24.40;63.70
18126;DHT22;53956;52.442;13.284;2023-09-19T13:50:48;24.40;63.60
18126;DHT22;53956;52.442;13.284;2023-09-19T13:53:15;24.20;63.70
18126;DHT22;53956;52.442;13.284;2023-09-19T13:55:42;24.30;63.90
18126;DHT22;53956;52.442;13.284;2023-09-19T13:58:08;24.20;63.60
18126;DHT22;53956;52.442;13.284;2023-09-19T14:00:37;24.30;63.40
18126;DHT22;53956;52.442;13.284;2023-09-19T14:03:04;24.30;63.80
18126;DHT22;53956;52.442;13.284;2023-09-19T14:05:31;24.30;63.80
18126;DHT22;53956;52.442;13.284;2023-09-19T14:07:58;24.30;64.40
18126;DHT22;53956;52.442;13.284;2023-09-19T14:10:25;24.20;64.20
18126;DHT22;53956;52.442;13.284;2023-09-19T14:12:52;24.40;64.30
18126;DHT22;53956;52.442;13.284;2023-09-19T14:15:19;24.40;64.30
18126;DHT22;53956;52.442;13.284;2023-09-19T14:17:58;24.20;64.90
18126;DHT22;53956;52.442;13.284;2023-09-19T14:20:26;24.40;64.50
18126;DHT22;53956;52.442;13.284;2023-09-19T14:22:54;24.40;64.90
18126;DHT22;53956;52.442;13.284;2023-09-19T14:25:21;24.30;63.70
18126;DHT22;53956;52.442;13.284;2023-09-19T14:27:48;24.30;64.40
18126;DHT22;53956;52.442;13.284;2023-09-19T14:30:15;24.30;64.40
18126;DHT22;53956;52.442;13.284;2023-09-19T14:32:41;24.20;64.70
18126;DHT22;53956;52.442;13.284;2023-09-19T14:35:09;24.20;64.80
18126;DHT22;53956;52.442;13.284;2023-09-19T14:37:36;24.30;63.40
18126;DHT22;53956;52.442;13.284;2023-09-19T14:40:05;24.20;63.50
18126;DHT22;53956;52.442;13.284;2023-09-19T14:42:34;24.20;63.50
18126;DHT22;53956;52.442;13.284;2023-09-19T14:45:02;24.10;63.70
18126;DHT22;53956;52.442;13.284;2023-09-19T14:47:30;24.10;63.10
18126;DHT22;53956;52.442;13.284;2023-09-19T14:49:57;24.10;63.50
18126;DHT22;53956;52.442;13.284;2023-09-19T14:52:25;24.10;63.80
18126;DHT22;53956;52.442;13.284;2023-09-19T14:54:54;24.20;63.40
18126;DHT22;53956;52.442;13.284;2023-09-19T14:57:20;24.10;62.80
18126;DHT22;53956;52.442;13.284;2023-09-19T14:59:49;24.10;63.40
18126;DHT22;53956;52.442;13.284;2023-09-19T15:02:16;24.10;63.80
18126;DHT22;53956;52.442;13.284;2023-09-19T15:04:43;24.20;63.90
18126;DHT22;53956;52.442;13.284;2023-09-19T15:07:12;24.10;64.10
18126;DHT22;53956;52.442;13.284;2023-09-19T15:09:41;24.00;63.60
18126;DHT22;53956;52.442;13.284;2023-09-19T15:12:09;24.00;63.30
18126;DHT22;53956;52.442;13.284;2023-09-19T15:14:40;24.10;63.40
18126;DHT22;53956;52.442;13.284;2023-09-19T15:17:07;24.10;63.90
18126;DHT22;53956;52.442;13.284;2023-09-19T15:19:34;24.10;64.00
18126;DHT22;53956;52.442;13.284;2023-09-19T15:22:00;24.00;63.80
18126;DHT22;53956;52.442;13.284;2023-09-19T15:24:27;24.00;64.00
18126;DHT22;53956;52.442;13.284;2023-09-19T15:26:56;24.10;64.10
18126;DHT22;53956;52.442;13.284;2023-09-19T15:29:22;24.10;64.70
18126;DHT22;53956;52.442;13.284;2023-09-19T15:31:49;24.10;64.40
18126;DHT22;53956;52.442;13.284;2023-09-19T15:34:16;24.00;64.70